sensor_id;sensor_type;location;lat;lon;timestamp;pressure;altitude;pressure_sealevel;temperature
64916;BMP280;51427;-27.442;153.014;2023-02-28T00:00:54;101204.50;;;31.82
64916;BMP280;51427;-27.442;153.014;2023-02-28T00:03:21;101203.22;;;31.71
64916;BMP280;51427;-27.442;153.014;2023-02-28T00:05:48;101204.84;;;30.89
64916;BMP280;51427;-27.442;153.014;2023-02-28T00:08:16;101194.50;;;31.31
64916;BMP280;51427;-27.442;153.014;2023-02-28T00:10:43;101193.88;;;30.52
64916;BMP280;51427;-27.442;153.014;2023-02-28T00:13:10;101195.03;;;30.50
64916;BMP280;51427;-27.442;153.014;2023-02-28T00:15:38;101193.47;;;31.05
64916;BMP280;51427;-27.442;153.014;2023-02-28T00:18:05;101190.75;;;30.13
64916;BMP280;51427;-27.442;153.014;2023-02-28T00:20:32;101182.59;;;29.73
64916;BMP280;51427;-27.442;153.014;2023-02-28T00:22:59;101186.91;;;29.95
64916;BMP280;51427;-27.442;153.014;2023-02-28T00:25:27;101179.88;;;30.18
64916;BMP280;51427;-27.442;153.014;2023-02-28T00:27:54;101178.13;;;30.04
64916;BMP280;51427;-27.442;153.014;2023-02-28T00:30:23;101171.66;;;29.71
64916;BMP280;51427;-27.442;153.014;2023-02-28T00:32:50;101165.50;;;28.99
64916;BMP280;51427;-27.442;153.014;2023-02-28T00:35:18;101155.28;;;29.50
64916;BMP280;51427;-27.442;153.014;2023-02-28T00:37:45;101153.16;;;29.54
64916;BMP280;51427;-27.442;153.014;2023-02-28T00:40:12;101146.38;;;29.89
64916;BMP280;51427;-27.442;153.014;2023-02-28T00:42:40;101142.69;;;30.27
64916;BMP280;51427;-27.442;153.014;2023-02-28T00:45:07;101144.00;;;30.23
64916;BMP280;51427;-27.442;153.014;2023-02-28T00:47:35;101133.31;;;30.26
64916;BMP280;51427;-27.442;153.014;2023-02-28T00:50:03;101128.25;;;30.32
64916;BMP280;51427;-27.442;153.014;2023-02-28T00:52:31;101118.69;;;30.82
64916;BMP280;51427;-27.442;153.014;2023-02-28T00:54:58;101120.41;;;31.17
64916;BMP280;51427;-27.442;153.014;2023-02-28T00:57:25;101105.38;;;31.33
64916;BMP280;51427;-27.442;153.014;2023-02-28T00:59:52;101103.25;;;31.70
64916;BMP280;51427;-27.442;153.014;2023-02-28T01:02:23;101107.69;;;30.80
64916;BMP280;51427;-27.442;153.014;2023-02-28T01:04:50;101093.19;;;31.48
64916;BMP280;51427;-27.442;153.014;2023-02-28T01:07:17;101084.28;;;31.91
64916;BMP280;51427;-27.442;153.014;2023-02-28T01:09:44;101077.97;;;32.06
64916;BMP280;51427;-27.442;153.014;2023-02-28T01:12:11;101094.31;;;30.91
64916;BMP280;51427;-27.442;153.014;2023-02-28T01:14:39;101097.13;;;30.05
64916;BMP280;51427;-27.442;153.014;2023-02-28T01:17:06;101087.63;;;29.91
64916;BMP280;51427;-27.442;153.014;2023-02-28T01:19:34;101091.66;;;30.29
64916;BMP280;51427;-27.442;153.014;2023-02-28T01:22:03;101082.53;;;31.64
64916;BMP280;51427;-27.442;153.014;2023-02-28T01:24:31;101070.50;;;31.84
64916;BMP280;51427;-27.442;153.014;2023-02-28T01:26:58;101072.69;;;31.80
64916;BMP280;51427;-27.442;153.014;2023-02-28T01:29:25;101072.72;;;30.78
64916;BMP280;51427;-27.442;153.014;2023-02-28T01:31:52;101076.59;;;29.97
64916;BMP280;51427;-27.442;153.014;2023-02-28T01:34:20;101085.66;;;29.65
64916;BMP280;51427;-27.442;153.014;2023-02-28T01:36:47;101080.34;;;30.30
64916;BMP280;51427;-27.442;153.014;2023-02-28T01:39:14;101079.47;;;29.23
64916;BMP280;51427;-27.442;153.014;2023-02-28T01:41:41;101067.88;;;29.55
64916;BMP280;51427;-27.442;153.014;2023-02-28T01:47:13;101072.19;;;30.12
64916;BMP280;51427;-27.442;153.014;2023-02-28T01:49:40;101054.78;;;29.71
64916;BMP280;51427;-27.442;153.014;2023-02-28T01:52:08;101047.75;;;29.65
64916;BMP280;51427;-27.442;153.014;2023-02-28T01:54:48;101062.69;;;29.98
64916;BMP280;51427;-27.442;153.014;2023-02-28T01:57:19;101055.94;;;29.54
64916;BMP280;51427;-27.442;153.014;2023-02-28T01:59:54;101048.53;;;30.09
64916;BMP280;51427;-27.442;153.014;2023-02-28T02:02:27;101042.34;;;30.24
64916;BMP280;51427;-27.442;153.014;2023-02-28T02:05:01;101043.47;;;29.58
64916;BMP280;51427;-27.442;153.014;2023-02-28T02:07:37;101037.09;;;29.82
64916;BMP280;51427;-27.442;153.014;2023-02-28T02:15:26;101041.69;;;29.44
64916;BMP280;51427;-27.442;153.014;2023-02-28T02:18:05;101035.94;;;30.20
64916;BMP280;51427;-27.442;153.014;2023-02-28T02:23:50;101032.72;;;29.97
64916;BMP280;51427;-27.442;153.014;2023-02-28T02:29:33;101017.50;;;29.59
64916;BMP280;51427;-27.442;153.014;2023-02-28T02:35:54;101006.19;;;30.24
64916;BMP280;51427;-27.442;153.014;2023-02-28T02:38:34;101004.63;;;30.44
64916;BMP280;51427;-27.442;153.014;2023-02-28T02:41:17;101001.41;;;30.21
64916;BMP280;51427;-27.442;153.014;2023-02-28T02:43:58;100998.28;;;30.25
64916;BMP280;51427;-27.442;153.014;2023-02-28T02:46:33;100991.72;;;30.44
64916;BMP280;51427;-27.442;153.014;2023-02-28T02:49:05;100987.94;;;30.25
64916;BMP280;51427;-27.442;153.014;2023-02-28T02:51:33;100987.41;;;30.71
64916;BMP280;51427;-27.442;153.014;2023-02-28T02:54:04;100987.28;;;30.38
64916;BMP280;51427;-27.442;153.014;2023-02-28T02:56:34;100986.69;;;30.01
64916;BMP280;51427;-27.442;153.014;2023-02-28T02:59:06;100996.34;;;30.13
64916;BMP280;51427;-27.442;153.014;2023-02-28T03:01:36;100992.47;;;30.38
64916;BMP280;51427;-27.442;153.014;2023-02-28T03:04:09;100991.31;;;30.67
64916;BMP280;51427;-27.442;153.014;2023-02-28T03:06:37;100982.97;;;30.65
64916;BMP280;51427;-27.442;153.014;2023-02-28T03:09:04;100987.09;;;30.60
64916;BMP280;51427;-27.442;153.014;2023-02-28T03:11:34;100983.06;;;30.78
64916;BMP280;51427;-27.442;153.014;2023-02-28T03:17:03;100977.44;;;29.92
64916;BMP280;51427;-27.442;153.014;2023-02-28T03:24:54;100968.22;;;30.60
64916;BMP280;51427;-27.442;153.014;2023-02-28T03:32:59;100976.06;;;29.89
64916;BMP280;51427;-27.442;153.014;2023-02-28T03:35:28;100971.91;;;29.45
64916;BMP280;51427;-27.442;153.014;2023-02-28T03:38:05;100967.22;;;30.19
64916;BMP280;51427;-27.442;153.014;2023-02-28T03:40:35;100956.50;;;30.63
64916;BMP280;51427;-27.442;153.014;2023-02-28T03:43:11;100950.22;;;30.72
64916;BMP280;51427;-27.442;153.014;2023-02-28T03:45:39;100953.63;;;29.75
64916;BMP280;51427;-27.442;153.014;2023-02-28T03:48:31;100948.34;;;30.18
64916;BMP280;51427;-27.442;153.014;2023-02-28T03:51:03;100946.00;;;29.67
64916;BMP280;51427;-27.442;153.014;2023-02-28T03:53:34;100941.72;;;29.74
64916;BMP280;51427;-27.442;153.014;2023-02-28T03:56:14;100943.34;;;30.17
64916;BMP280;51427;-27.442;153.014;2023-02-28T03:58:51;100938.59;;;30.14
64916;BMP280;51427;-27.442;153.014;2023-02-28T04:03:51;100939.91;;;29.75
64916;BMP280;51427;-27.442;153.014;2023-02-28T04:06:21;100935.88;;;29.66
64916;BMP280;51427;-27.442;153.014;2023-02-28T04:08:49;100919.75;;;30.34
64916;BMP280;51427;-27.442;153.014;2023-02-28T04:13:44;100915.84;;;30.24
64916;BMP280;51427;-27.442;153.014;2023-02-28T04:16:11;100919.47;;;29.73
64916;BMP280;51427;-27.442;153.014;2023-02-28T04:18:39;100930.22;;;29.42
64916;BMP280;51427;-27.442;153.014;2023-02-28T04:21:07;100925.31;;;29.61
64916;BMP280;51427;-27.442;153.014;2023-02-28T04:23:34;100930.41;;;29.90
64916;BMP280;51427;-27.442;153.014;2023-02-28T04:26:02;100909.19;;;30.15
64916;BMP280;51427;-27.442;153.014;2023-02-28T04:28:30;100901.72;;;30.41
64916;BMP280;51427;-27.442;153.014;2023-02-28T04:31:01;100922.84;;;29.24
64916;BMP280;51427;-27.442;153.014;2023-02-28T04:33:29;100906.28;;;29.19
64916;BMP280;51427;-27.442;153.014;2023-02-28T04:36:05;100896.22;;;29.53
64916;BMP280;51427;-27.442;153.014;2023-02-28T04:38:37;100890.47;;;30.07
64916;BMP280;51427;-27.442;153.014;2023-02-28T04:41:05;100889.28;;;30.09
64916;BMP280;51427;-27.442;153.014;2023-02-28T04:43:32;100891.03;;;29.81
64916;BMP280;51427;-27.442;153.014;2023-02-28T04:46:03;100898.81;;;29.53
64916;BMP280;51427;-27.442;153.014;2023-02-28T04:48:32;100901.53;;;29.66
64916;BMP280;51427;-27.442;153.014;2023-02-28T04:51:08;100885.16;;;30.35
64916;BMP280;51427;-27.442;153.014;2023-02-28T04:53:37;100878.81;;;30.17
64916;BMP280;51427;-27.442;153.014;2023-02-28T04:56:06;100887.59;;;29.60
64916;BMP280;51427;-27.442;153.014;2023-02-28T04:58:34;100885.88;;;29.32
64916;BMP280;51427;-27.442;153.014;2023-02-28T05:01:07;100889.19;;;28.46
64916;BMP280;51427;-27.442;153.014;2023-02-28T05:03:42;100880.81;;;28.81
64916;BMP280;51427;-27.442;153.014;2023-02-28T05:06:11;100873.69;;;28.69
64916;BMP280;51427;-27.442;153.014;2023-02-28T05:08:39;100876.22;;;28.40
64916;BMP280;51427;-27.442;153.014;2023-02-28T05:11:19;100872.56;;;28.71
64916;BMP280;51427;-27.442;153.014;2023-02-28T05:13:48;100869.06;;;29.36
64916;BMP280;51427;-27.442;153.014;2023-02-28T05:16:16;100865.63;;;28.72
64916;BMP280;51427;-27.442;153.014;2023-02-28T05:18:44;100851.31;;;28.69
64916;BMP280;51427;-27.442;153.014;2023-02-28T05:21:36;100852.91;;;29.13
64916;BMP280;51427;-27.442;153.014;2023-02-28T05:24:06;100832.19;;;29.77
64916;BMP280;51427;-27.442;153.014;2023-02-28T05:26:40;100841.19;;;28.96
64916;BMP280;51427;-27.442;153.014;2023-02-28T05:29:08;100836.97;;;28.52
64916;BMP280;51427;-27.442;153.014;2023-02-28T05:31:36;100840.22;;;28.32
64916;BMP280;51427;-27.442;153.014;2023-02-28T05:34:04;100840.16;;;28.40
64916;BMP280;51427;-27.442;153.014;2023-02-28T05:36:32;100842.25;;;28.22
64916;BMP280;51427;-27.442;153.014;2023-02-28T05:39:00;100831.81;;;28.52
64916;BMP280;51427;-27.442;153.014;2023-02-28T05:41:28;100831.44;;;28.41
64916;BMP280;51427;-27.442;153.014;2023-02-28T05:43:56;100831.84;;;28.16
64916;BMP280;51427;-27.442;153.014;2023-02-28T05:46:24;100824.81;;;27.87
64916;BMP280;51427;-27.442;153.014;2023-02-28T05:48:52;100824.00;;;27.65
64916;BMP280;51427;-27.442;153.014;2023-02-28T05:51:19;100823.91;;;27.58
64916;BMP280;51427;-27.442;153.014;2023-02-28T05:53:47;100823.06;;;27.66
64916;BMP280;51427;-27.442;153.014;2023-02-28T05:56:16;100828.38;;;27.86
64916;BMP280;51427;-27.442;153.014;2023-02-28T05:58:43;100824.31;;;27.70
64916;BMP280;51427;-27.442;153.014;2023-02-28T06:01:30;100829.84;;;27.59
64916;BMP280;51427;-27.442;153.014;2023-02-28T06:03:59;100833.06;;;27.61
64916;BMP280;51427;-27.442;153.014;2023-02-28T06:06:28;100832.41;;;27.59
64916;BMP280;51427;-27.442;153.014;2023-02-28T06:09:00;100837.34;;;27.38
64916;BMP280;51427;-27.442;153.014;2023-02-28T06:11:28;100824.81;;;27.35
64916;BMP280;51427;-27.442;153.014;2023-02-28T06:13:58;100820.34;;;27.29
64916;BMP280;51427;-27.442;153.014;2023-02-28T06:16:28;100824.47;;;27.38
64916;BMP280;51427;-27.442;153.014;2023-02-28T06:19:00;100823.34;;;27.10
64916;BMP280;51427;-27.442;153.014;2023-02-28T06:21:29;100830.78;;;27.28
64916;BMP280;51427;-27.442;153.014;2023-02-28T06:23:57;100827.50;;;27.11
64916;BMP280;51427;-27.442;153.014;2023-02-28T06:26:26;100838.66;;;27.26
64916;BMP280;51427;-27.442;153.014;2023-02-28T06:28:54;100831.06;;;27.02
64916;BMP280;51427;-27.442;153.014;2023-02-28T06:31:22;100826.94;;;27.32
64916;BMP280;51427;-27.442;153.014;2023-02-28T06:33:52;100806.59;;;27.44
64916;BMP280;51427;-27.442;153.014;2023-02-28T06:36:20;100805.22;;;27.34
64916;BMP280;51427;-27.442;153.014;2023-02-28T06:38:52;100803.97;;;26.92
64916;BMP280;51427;-27.442;153.014;2023-02-28T06:41:24;100801.31;;;26.70
64916;BMP280;51427;-27.442;153.014;2023-02-28T06:43:52;100802.91;;;26.79
64916;BMP280;51427;-27.442;153.014;2023-02-28T06:46:20;100798.13;;;26.68
64916;BMP280;51427;-27.442;153.014;2023-02-28T06:48:48;100805.88;;;26.52
64916;BMP280;51427;-27.442;153.014;2023-02-28T06:51:20;100803.09;;;26.53
64916;BMP280;51427;-27.442;153.014;2023-02-28T06:53:48;100808.56;;;26.58
64916;BMP280;51427;-27.442;153.014;2023-02-28T06:56:17;100823.50;;;26.47
64916;BMP280;51427;-27.442;153.014;2023-02-28T06:58:50;100822.88;;;26.37
64916;BMP280;51427;-27.442;153.014;2023-02-28T07:01:19;100841.47;;;26.47
64916;BMP280;51427;-27.442;153.014;2023-02-28T07:03:49;100830.59;;;26.29
64916;BMP280;51427;-27.442;153.014;2023-02-28T07:06:20;100836.03;;;26.18
64916;BMP280;51427;-27.442;153.014;2023-02-28T07:08:50;100848.38;;;26.15
64916;BMP280;51427;-27.442;153.014;2023-02-28T07:11:20;100838.59;;;26.18
64916;BMP280;51427;-27.442;153.014;2023-02-28T07:13:49;100842.25;;;26.24
64916;BMP280;51427;-27.442;153.014;2023-02-28T07:16:17;100847.06;;;26.19
64916;BMP280;51427;-27.442;153.014;2023-02-28T07:18:45;100850.16;;;26.30
64916;BMP280;51427;-27.442;153.014;2023-02-28T07:21:13;100861.19;;;26.15
64916;BMP280;51427;-27.442;153.014;2023-02-28T07:23:41;100864.75;;;26.30
64916;BMP280;51427;-27.442;153.014;2023-02-28T07:26:12;100863.59;;;26.24
64916;BMP280;51427;-27.442;153.014;2023-02-28T07:28:42;100865.03;;;26.19
64916;BMP280;51427;-27.442;153.014;2023-02-28T07:31:10;100873.56;;;26.35
64916;BMP280;51427;-27.442;153.014;2023-02-28T07:33:38;100866.00;;;26.49
64916;BMP280;51427;-27.442;153.014;2023-02-28T07:36:16;100869.06;;;26.13
64916;BMP280;51427;-27.442;153.014;2023-02-28T07:38:46;100862.47;;;26.11
64916;BMP280;51427;-27.442;153.014;2023-02-28T07:41:17;100860.84;;;26.10
64916;BMP280;51427;-27.442;153.014;2023-02-28T07:43:46;100859.09;;;26.10
64916;BMP280;51427;-27.442;153.014;2023-02-28T07:46:15;100866.16;;;26.08
64916;BMP280;51427;-27.442;153.014;2023-02-28T07:48:43;100867.91;;;26.00
64916;BMP280;51427;-27.442;153.014;2023-02-28T07:51:11;100864.22;;;25.95
64916;BMP280;51427;-27.442;153.014;2023-02-28T07:53:39;100873.50;;;25.88
64916;BMP280;51427;-27.442;153.014;2023-02-28T07:56:07;100872.56;;;26.04
64916;BMP280;51427;-27.442;153.014;2023-02-28T07:58:38;100874.13;;;25.82
64916;BMP280;51427;-27.442;153.014;2023-02-28T08:01:10;100873.97;;;25.83
64916;BMP280;51427;-27.442;153.014;2023-02-28T08:03:38;100870.00;;;25.89
64916;BMP280;51427;-27.442;153.014;2023-02-28T08:06:08;100871.25;;;25.85
64916;BMP280;51427;-27.442;153.014;2023-02-28T08:08:41;100869.16;;;25.72
64916;BMP280;51427;-27.442;153.014;2023-02-28T08:11:10;100871.84;;;25.63
64916;BMP280;51427;-27.442;153.014;2023-02-28T08:13:37;100861.72;;;25.53
64916;BMP280;51427;-27.442;153.014;2023-02-28T08:16:05;100875.09;;;25.65
64916;BMP280;51427;-27.442;153.014;2023-02-28T08:18:33;100885.59;;;25.54
64916;BMP280;51427;-27.442;153.014;2023-02-28T08:21:07;100886.84;;;25.50
64916;BMP280;51427;-27.442;153.014;2023-02-28T08:23:35;100884.09;;;25.44
64916;BMP280;51427;-27.442;153.014;2023-02-28T08:26:03;100886.50;;;25.37
64916;BMP280;51427;-27.442;153.014;2023-02-28T08:28:31;100879.31;;;25.49
64916;BMP280;51427;-27.442;153.014;2023-02-28T08:30:59;100883.47;;;25.42
64916;BMP280;51427;-27.442;153.014;2023-02-28T08:33:27;100885.03;;;25.35
64916;BMP280;51427;-27.442;153.014;2023-02-28T08:35:56;100899.94;;;25.39
64916;BMP280;51427;-27.442;153.014;2023-02-28T08:38:24;100911.41;;;25.27
64916;BMP280;51427;-27.442;153.014;2023-02-28T08:40:58;100905.66;;;25.33
64916;BMP280;51427;-27.442;153.014;2023-02-28T08:43:27;100894.31;;;25.28
64916;BMP280;51427;-27.442;153.014;2023-02-28T08:45:56;100896.72;;;25.29
64916;BMP280;51427;-27.442;153.014;2023-02-28T08:48:24;100900.84;;;25.30
64916;BMP280;51427;-27.442;153.014;2023-02-28T08:50:59;100909.50;;;25.29
64916;BMP280;51427;-27.442;153.014;2023-02-28T08:53:28;100923.56;;;25.25
64916;BMP280;51427;-27.442;153.014;2023-02-28T08:56:04;100938.47;;;25.30
64916;BMP280;51427;-27.442;153.014;2023-02-28T08:58:32;100946.28;;;25.20
64916;BMP280;51427;-27.442;153.014;2023-02-28T09:01:06;100951.69;;;25.17
64916;BMP280;51427;-27.442;153.014;2023-02-28T09:03:34;100958.06;;;25.13
64916;BMP280;51427;-27.442;153.014;2023-02-28T09:06:02;100953.94;;;25.12
64916;BMP280;51427;-27.442;153.014;2023-02-28T09:08:31;100951.41;;;25.20
64916;BMP280;51427;-27.442;153.014;2023-02-28T09:10:59;100959.94;;;25.04
64916;BMP280;51427;-27.442;153.014;2023-02-28T09:13:28;100954.53;;;25.06
64916;BMP280;51427;-27.442;153.014;2023-02-28T09:16:01;100956.34;;;25.14
64916;BMP280;51427;-27.442;153.014;2023-02-28T09:18:30;100966.53;;;25.06
64916;BMP280;51427;-27.442;153.014;2023-02-28T09:20:58;100965.59;;;25.15
64916;BMP280;51427;-27.442;153.014;2023-02-28T09:23:25;100973.47;;;24.96
64916;BMP280;51427;-27.442;153.014;2023-02-28T09:25:54;100975.59;;;25.01
64916;BMP280;51427;-27.442;153.014;2023-02-28T09:28:23;100972.50;;;25.14
64916;BMP280;51427;-27.442;153.014;2023-02-28T09:30:53;100978.31;;;24.99
64916;BMP280;51427;-27.442;153.014;2023-02-28T09:33:21;100981.88;;;24.89
64916;BMP280;51427;-27.442;153.014;2023-02-28T09:35:50;100983.50;;;24.90
64916;BMP280;51427;-27.442;153.014;2023-02-28T09:38:18;100988.41;;;24.83
64916;BMP280;51427;-27.442;153.014;2023-02-28T09:43:15;100985.84;;;25.01
64916;BMP280;51427;-27.442;153.014;2023-02-28T09:45:52;100984.44;;;24.89
64916;BMP280;51427;-27.442;153.014;2023-02-28T09:48:37;100989.25;;;24.92
64916;BMP280;51427;-27.442;153.014;2023-02-28T09:51:23;100991.41;;;24.79
64916;BMP280;51427;-27.442;153.014;2023-02-28T09:53:54;100991.97;;;24.90
64916;BMP280;51427;-27.442;153.014;2023-02-28T09:56:25;100984.22;;;24.82
64916;BMP280;51427;-27.442;153.014;2023-02-28T10:13:00;100986.59;;;24.76
64916;BMP280;51427;-27.442;153.014;2023-02-28T10:15:31;100991.41;;;24.79
64916;BMP280;51427;-27.442;153.014;2023-02-28T10:18:06;101000.34;;;24.75
64916;BMP280;51427;-27.442;153.014;2023-02-28T10:20:39;101007.47;;;24.89
64916;BMP280;51427;-27.442;153.014;2023-02-28T10:23:27;101015.53;;;25.11
64916;BMP280;51427;-27.442;153.014;2023-02-28T10:26:15;101015.94;;;24.99
64916;BMP280;51427;-27.442;153.014;2023-02-28T10:28:44;101025.94;;;24.92
64916;BMP280;51427;-27.442;153.014;2023-02-28T10:31:17;101026.56;;;24.94
64916;BMP280;51427;-27.442;153.014;2023-02-28T10:33:46;101035.56;;;24.81
64916;BMP280;51427;-27.442;153.014;2023-02-28T10:36:16;101040.56;;;24.82
64916;BMP280;51427;-27.442;153.014;2023-02-28T10:38:46;101046.09;;;24.78
64916;BMP280;51427;-27.442;153.014;2023-02-28T10:41:16;101038.44;;;24.60
64916;BMP280;51427;-27.442;153.014;2023-02-28T10:43:45;101027.97;;;24.54
64916;BMP280;51427;-27.442;153.014;2023-02-28T10:46:15;101021.56;;;24.50
64916;BMP280;51427;-27.442;153.014;2023-02-28T10:49:05;101028.34;;;24.59
64916;BMP280;51427;-27.442;153.014;2023-02-28T10:51:41;101020.47;;;24.87
64916;BMP280;51427;-27.442;153.014;2023-02-28T10:54:32;101025.19;;;25.00
64916;BMP280;51427;-27.442;153.014;2023-02-28T10:57:23;101032.97;;;25.07
64916;BMP280;51427;-27.442;153.014;2023-02-28T10:59:52;101027.53;;;24.76
64916;BMP280;51427;-27.442;153.014;2023-02-28T11:02:37;101028.41;;;24.67
64916;BMP280;51427;-27.442;153.014;2023-02-28T11:05:32;101029.56;;;24.20
64916;BMP280;51427;-27.442;153.014;2023-02-28T11:08:15;101029.06;;;24.08
64916;BMP280;51427;-27.442;153.014;2023-02-28T11:10:48;101019.69;;;24.25
64916;BMP280;51427;-27.442;153.014;2023-02-28T11:13:19;101028.13;;;24.35
64916;BMP280;51427;-27.442;153.014;2023-02-28T11:15:58;101029.31;;;24.58
64916;BMP280;51427;-27.442;153.014;2023-02-28T11:18:52;101023.44;;;24.48
64916;BMP280;51427;-27.442;153.014;2023-02-28T11:21:27;101013.59;;;24.26
64916;BMP280;51427;-27.442;153.014;2023-02-28T11:24:29;101017.63;;;24.12
64916;BMP280;51427;-27.442;153.014;2023-02-28T11:26:58;101020.75;;;24.06
64916;BMP280;51427;-27.442;153.014;2023-02-28T11:29:31;101019.19;;;24.12
64916;BMP280;51427;-27.442;153.014;2023-02-28T11:34:33;101011.88;;;24.00
64916;BMP280;51427;-27.442;153.014;2023-02-28T11:37:01;101009.38;;;24.17
64916;BMP280;51427;-27.442;153.014;2023-02-28T11:39:33;101009.38;;;24.17
64916;BMP280;51427;-27.442;153.014;2023-02-28T11:42:10;101010.59;;;24.13
64916;BMP280;51427;-27.442;153.014;2023-02-28T12:17:47;100992.06;;;23.85
64916;BMP280;51427;-27.442;153.014;2023-02-28T12:23:25;100991.72;;;23.70
64916;BMP280;51427;-27.442;153.014;2023-02-28T12:26:02;100995.38;;;23.59
64916;BMP280;51427;-27.442;153.014;2023-02-28T12:29:26;100998.88;;;23.94
64916;BMP280;51427;-27.442;153.014;2023-02-28T12:32:05;101007.00;;;23.80
64916;BMP280;51427;-27.442;153.014;2023-02-28T12:37:37;100993.91;;;23.56
64916;BMP280;51427;-27.442;153.014;2023-02-28T12:40:21;100998.66;;;23.42
64916;BMP280;51427;-27.442;153.014;2023-02-28T12:43:07;100992.19;;;23.47
64916;BMP280;51427;-27.442;153.014;2023-02-28T12:48:31;100999.94;;;23.74
64916;BMP280;51427;-27.442;153.014;2023-02-28T12:51:08;100999.19;;;23.45
64916;BMP280;51427;-27.442;153.014;2023-02-28T12:53:58;100999.47;;;23.42
64916;BMP280;51427;-27.442;153.014;2023-02-28T12:56:38;100997.28;;;23.47
64916;BMP280;51427;-27.442;153.014;2023-02-28T12:59:23;100996.06;;;23.51
64916;BMP280;51427;-27.442;153.014;2023-02-28T13:10:46;100998.34;;;23.54
64916;BMP280;51427;-27.442;153.014;2023-02-28T13:13:18;100994.28;;;23.61
64916;BMP280;51427;-27.442;153.014;2023-02-28T13:16:08;100989.34;;;23.50
64916;BMP280;51427;-27.442;153.014;2023-02-28T13:18:43;100990.41;;;23.57
64916;BMP280;51427;-27.442;153.014;2023-02-28T13:21:28;100981.34;;;23.36
64916;BMP280;51427;-27.442;153.014;2023-02-28T13:24:00;100979.22;;;23.22
64916;BMP280;51427;-27.442;153.014;2023-02-28T13:34:37;100969.69;;;23.15
64916;BMP280;51427;-27.442;153.014;2023-02-28T13:39:53;100958.34;;;23.36
64916;BMP280;51427;-27.442;153.014;2023-02-28T13:47:42;100968.13;;;23.50
64916;BMP280;51427;-27.442;153.014;2023-02-28T13:50:32;100961.34;;;23.58
64916;BMP280;51427;-27.442;153.014;2023-02-28T14:01:16;100958.28;;;23.19
64916;BMP280;51427;-27.442;153.014;2023-02-28T14:06:29;100948.13;;;22.81
64916;BMP280;51427;-27.442;153.014;2023-02-28T14:11:33;100941.53;;;22.88
64916;BMP280;51427;-27.442;153.014;2023-02-28T14:14:07;100932.97;;;22.79
64916;BMP280;51427;-27.442;153.014;2023-02-28T14:17:04;100933.22;;;22.95
64916;BMP280;51427;-27.442;153.014;2023-02-28T14:19:35;100929.25;;;23.20
64916;BMP280;51427;-27.442;153.014;2023-02-28T14:22:51;100917.50;;;23.36
64916;BMP280;51427;-27.442;153.014;2023-02-28T14:31:18;100933.78;;;23.25
64916;BMP280;51427;-27.442;153.014;2023-02-28T14:36:43;100937.25;;;22.79
64916;BMP280;51427;-27.442;153.014;2023-02-28T14:39:16;100932.66;;;22.92
64916;BMP280;51427;-27.442;153.014;2023-02-28T14:41:46;100934.09;;;23.22
64916;BMP280;51427;-27.442;153.014;2023-02-28T14:44:21;100936.94;;;23.20
64916;BMP280;51427;-27.442;153.014;2023-02-28T14:46:58;100920.34;;;22.78
64916;BMP280;51427;-27.442;153.014;2023-02-28T14:49:36;100928.25;;;22.75
64916;BMP280;51427;-27.442;153.014;2023-02-28T14:52:19;100916.97;;;22.68
64916;BMP280;51427;-27.442;153.014;2023-02-28T14:54:59;100910.09;;;22.87
64916;BMP280;51427;-27.442;153.014;2023-02-28T14:57:38;100901.91;;;23.03
64916;BMP280;51427;-27.442;153.014;2023-02-28T15:00:20;100895.00;;;23.13
64916;BMP280;51427;-27.442;153.014;2023-02-28T15:02:48;100896.41;;;22.98
64916;BMP280;51427;-27.442;153.014;2023-02-28T15:05:29;100894.06;;;23.14
64916;BMP280;51427;-27.442;153.014;2023-02-28T15:08:15;100889.53;;;23.08
64916;BMP280;51427;-27.442;153.014;2023-02-28T15:10:53;100887.81;;;22.99
64916;BMP280;51427;-27.442;153.014;2023-02-28T15:13:23;100887.28;;;22.86
64916;BMP280;51427;-27.442;153.014;2023-02-28T15:16:04;100887.19;;;22.69
64916;BMP280;51427;-27.442;153.014;2023-02-28T15:21:18;100896.41;;;22.88
64916;BMP280;51427;-27.442;153.014;2023-02-28T15:23:55;100890.91;;;22.93
64916;BMP280;51427;-27.442;153.014;2023-02-28T15:26:31;100897.47;;;23.05
64916;BMP280;51427;-27.442;153.014;2023-02-28T15:29:19;100894.91;;;23.05
64916;BMP280;51427;-27.442;153.014;2023-02-28T15:32:16;100890.75;;;22.85
64916;BMP280;51427;-27.442;153.014;2023-02-28T15:34:45;100884.72;;;22.95
64916;BMP280;51427;-27.442;153.014;2023-02-28T15:40:18;100883.22;;;23.02
64916;BMP280;51427;-27.442;153.014;2023-02-28T15:45:46;100877.06;;;22.86
64916;BMP280;51427;-27.442;153.014;2023-02-28T15:48:21;100878.13;;;22.93
64916;BMP280;51427;-27.442;153.014;2023-02-28T15:51:08;100875.78;;;22.63
64916;BMP280;51427;-27.442;153.014;2023-02-28T15:53:46;100880.06;;;22.72
64916;BMP280;51427;-27.442;153.014;2023-02-28T15:56:22;100877.59;;;22.89
64916;BMP280;51427;-27.442;153.014;2023-02-28T15:58:53;100880.72;;;22.74
64916;BMP280;51427;-27.442;153.014;2023-02-28T16:01:29;100870.13;;;22.69
64916;BMP280;51427;-27.442;153.014;2023-02-28T16:04:16;100877.16;;;22.48
64916;BMP280;51427;-27.442;153.014;2023-02-28T16:09:20;100863.31;;;22.13
64916;BMP280;51427;-27.442;153.014;2023-02-28T16:11:49;100856.19;;;22.07
64916;BMP280;51427;-27.442;153.014;2023-02-28T16:14:20;100855.97;;;22.20
64916;BMP280;51427;-27.442;153.014;2023-02-28T16:16:51;100847.09;;;22.42
64916;BMP280;51427;-27.442;153.014;2023-02-28T16:19:20;100848.19;;;22.21
64916;BMP280;51427;-27.442;153.014;2023-02-28T16:21:48;100843.19;;;22.01
64916;BMP280;51427;-27.442;153.014;2023-02-28T16:24:15;100839.31;;;22.16
64916;BMP280;51427;-27.442;153.014;2023-02-28T16:26:46;100824.53;;;22.47